Time;durP1;ratioP1;P1;durP2;ratioP2;P2;SDS_P1;SDS_P2;PMS_P1;PMS_P2;Temp;Humidity;BMP_temperature;BMP_pressure;BME280_temperature;BME280_humidity;BME280_pressure;Samples;Min_cycle;Max_cycle;Signal;HPM_P1;HPM_P2
2023/02/24 00:00:32;;;;;;;18.55;4.85;;;4.10;99.90;;;;;;5073124;28;20270;-61
2023/02/24 00:03:04;;;;;;;12.43;3.38;;;4.00;99.90;;;;;;5073153;28;20330;-61
2023/02/24 00:05:34;;;;;;;9.32;3.30;;;4.00;99.90;;;;;;5072977;28;20303;-61
2023/02/24 00:08:02;;;;;;;14.02;4.45;;;4.10;99.90;;;;;;5073017;28;20256;-61
2023/02/24 00:10:29;;;;;;;11.70;3.60;;;4.00;99.90;;;;;;5072661;28;20208;-61
2023/02/24 00:12:58;;;;;;;23.17;4.53;;;4.10;99.90;;;;;;5072841;28;20216;-61
2023/02/24 00:15:25;;;;;;;11.25;2.58;;;4.00;99.90;;;;;;5073197;28;20290;-62
2023/02/24 00:17:52;;;;;;;11.50;2.85;;;4.00;99.90;;;;;;5073076;28;20217;-62
2023/02/24 00:20:19;;;;;;;15.52;3.65;;;4.00;99.90;;;;;;5073105;28;20209;-61
2023/02/24 00:22:46;;;;;;;10.63;3.08;;;3.90;99.90;;;;;;5072733;28;20197;-62
2023/02/24 00:25:14;;;;;;;17.65;4.22;;;3.90;99.90;;;;;;5073093;28;20572;-62
2023/02/24 00:27:41;;;;;;;9.55;2.70;;;3.90;99.90;;;;;;5076106;28;20722;-62
2023/02/24 00:30:11;;;;;;;7.05;3.05;;;3.90;99.90;;;;;;5076857;28;20205;-62
2023/02/24 00:32:38;;;;;;;9.40;2.85;;;3.90;99.90;;;;;;5077215;28;20205;-62
2023/02/24 00:35:07;;;;;;;10.63;3.28;;;4.00;99.90;;;;;;5077128;28;20290;-62
2023/02/24 00:37:34;;;;;;;13.95;4.13;;;4.00;99.90;;;;;;5077274;28;20264;-63
2023/02/24 00:40:01;;;;;;;10.45;2.33;;;4.00;99.90;;;;;;5076979;28;20243;-62
2023/02/24 00:42:28;;;;;;;12.68;3.72;;;4.00;99.90;;;;;;5077099;28;20256;-63
2023/02/24 00:44:55;;;;;;;13.10;3.20;;;4.10;99.90;;;;;;5076533;28;20269;-62
2023/02/24 00:47:23;;;;;;;27.13;3.97;;;4.10;99.90;;;;;;5076576;28;20249;-63
2023/02/24 00:49:50;;;;;;;10.52;3.40;;;4.10;99.90;;;;;;5076273;28;20205;-62
2023/02/24 00:52:19;;;;;;;12.85;2.70;;;4.10;99.90;;;;;;5076742;28;20201;-61
2023/02/24 00:54:47;;;;;;;14.43;3.22;;;4.10;99.90;;;;;;5076881;28;20245;-61
2023/02/24 00:57:16;;;;;;;8.90;2.92;;;4.20;99.90;;;;;;5076379;28;20228;-62
2023/02/24 00:59:46;;;;;;;13.80;3.22;;;4.20;99.90;;;;;;5076121;28;20690;-62
2023/02/24 01:02:14;;;;;;;25.00;4.00;;;4.20;99.90;;;;;;5076370;28;20251;-62
2023/02/24 01:04:43;;;;;;;19.95;3.20;;;4.10;99.90;;;;;;5076134;28;20236;-62
2023/02/24 01:07:11;;;;;;;23.88;3.03;;;4.20;99.90;;;;;;5075899;28;20229;-62
2023/02/24 01:09:40;;;;;;;12.00;3.05;;;4.20;99.90;;;;;;5076053;28;20214;-62
2023/02/24 01:14:54;;;;;;;9.05;3.25;;;4.20;99.90;;;;;;5076026;28;20599;-61
2023/02/24 01:17:21;;;;;;;10.90;3.35;;;4.20;99.90;;;;;;5075733;28;20653;-61
2023/02/24 01:19:50;;;;;;;10.43;2.17;;;4.20;99.90;;;;;;5075957;28;20240;-62
2023/02/24 01:22:19;;;;;;;12.55;2.65;;;4.20;99.90;;;;;;5075789;28;20289;-62
2023/02/24 01:24:47;;;;;;;15.75;3.08;;;4.10;99.90;;;;;;5075979;28;20251;-60
2023/02/24 01:27:17;;;;;;;14.68;2.85;;;4.20;99.90;;;;;;5075842;28;20573;-61
2023/02/24 01:29:44;;;;;;;12.25;2.70;;;4.20;99.90;;;;;;5075764;28;20262;-62
2023/02/24 01:32:17;;;;;;;12.45;3.30;;;4.10;99.90;;;;;;5075539;28;20208;-61
2023/02/24 01:34:44;;;;;;;12.52;3.63;;;4.20;99.90;;;;;;5075778;28;20565;-62
2023/02/24 01:37:15;;;;;;;11.82;3.10;;;4.10;99.90;;;;;;5075549;28;20229;-62
2023/02/24 01:39:42;;;;;;;10.07;3.15;;;4.10;99.90;;;;;;5075039;28;20181;-62
2023/02/24 01:42:17;;;;;;;9.93;3.00;;;4.10;99.90;;;;;;5075599;28;20242;-61
2023/02/24 01:45:11;;;;;;;12.68;3.25;;;4.10;99.90;;;;;;5075921;28;20649;-62
2023/02/24 01:47:38;;;;;;;17.92;4.57;;;4.10;99.90;;;;;;5075359;28;20239;-61
2023/02/24 01:50:06;;;;;;;12.20;3.63;;;4.10;99.90;;;;;;5075447;28;20293;-61
2023/02/24 01:52:37;;;;;;;14.35;3.20;;;4.10;99.90;;;;;;5074814;28;20674;-61
2023/02/24 01:55:10;;;;;;;11.82;3.70;;;4.10;99.90;;;;;;5075362;28;20364;-63
2023/02/24 01:57:38;;;;;;;12.10;2.58;;;4.10;99.90;;;;;;5074898;28;20228;-61
2023/02/24 02:00:19;;;;;;;8.25;2.28;;;4.10;99.90;;;;;;5074902;28;20647;-62
2023/02/24 02:02:51;;;;;;;11.57;2.75;;;4.10;99.90;;;;;;5075122;28;20264;-61
2023/02/24 02:05:18;;;;;;;10.70;2.83;;;4.10;99.90;;;;;;5075020;28;20668;-62
2023/02/24 02:07:49;;;;;;;9.20;2.88;;;4.10;99.90;;;;;;5075519;28;20267;-61
2023/02/24 02:10:17;;;;;;;16.17;3.85;;;4.10;99.90;;;;;;5075511;28;20310;-62
2023/02/24 02:12:44;;;;;;;7.55;2.97;;;4.10;99.90;;;;;;5074934;28;20197;-62
2023/02/24 02:15:14;;;;;;;11.73;2.83;;;4.10;99.90;;;;;;5074538;28;20228;-61
2023/02/24 02:17:51;;;;;;;6.82;2.55;;;4.10;99.90;;;;;;5074925;28;20641;-61
2023/02/24 02:21:03;;;;;;;8.82;2.47;;;4.10;99.90;;;;;;5075082;28;20231;-61
2023/02/24 02:23:57;;;;;;;6.68;2.47;;;4.00;99.90;;;;;;5075508;28;20197;-61
2023/02/24 02:26:59;;;;;;;7.90;2.65;;;4.10;99.90;;;;;;5074717;28;20201;-60
2023/02/24 02:30:12;;;;;;;17.58;3.80;;;4.10;99.90;;;;;;5067901;28;20209;-60
2023/02/24 02:33:12;;;;;;;12.05;2.53;;;4.00;99.90;;;;;;5072964;28;20208;-61
2023/02/24 02:35:45;;;;;;;8.85;2.88;;;4.00;99.90;;;;;;5075706;28;20190;-61
2023/02/24 02:38:17;;;;;;;14.75;3.15;;;4.00;99.90;;;;;;5074078;28;20221;-61
2023/02/24 02:40:48;;;;;;;11.88;3.20;;;4.00;99.90;;;;;;5074428;28;20192;-61
2023/02/24 02:43:24;;;;;;;13.68;3.20;;;4.00;99.90;;;;;;5074135;28;20281;-61
2023/02/24 02:45:56;;;;;;;8.63;2.20;;;4.00;99.90;;;;;;5074683;28;20186;-62
2023/02/24 02:48:29;;;;;;;12.35;2.67;;;4.00;99.90;;;;;;5074408;28;20232;-61
2023/02/24 02:51:03;;;;;;;14.98;3.83;;;4.00;99.90;;;;;;5073038;28;20181;-61
2023/02/24 02:53:36;;;;;;;13.15;3.17;;;4.00;99.90;;;;;;5074215;28;20213;-62
2023/02/24 02:56:10;;;;;;;10.30;2.75;;;4.00;99.90;;;;;;5073806;28;20189;-60
2023/02/24 02:58:41;;;;;;;12.23;2.75;;;4.10;99.90;;;;;;5073872;28;20225;-62
2023/02/24 03:01:10;;;;;;;5.97;2.28;;;4.10;99.90;;;;;;5074254;28;20190;-61
2023/02/24 03:03:42;;;;;;;6.47;2.35;;;4.00;99.90;;;;;;5074298;28;20293;-63
2023/02/24 03:06:16;;;;;;;8.35;2.95;;;4.00;99.90;;;;;;5074820;28;20255;-61
2023/02/24 03:08:51;;;;;;;7.35;1.98;;;4.00;99.90;;;;;;5074212;28;20262;-61
2023/02/24 03:11:20;;;;;;;9.20;2.47;;;4.00;99.90;;;;;;5073885;28;20189;-61
2023/02/24 03:13:50;;;;;;;14.43;3.00;;;3.90;99.90;;;;;;5073880;28;20232;-61
2023/02/24 03:16:19;;;;;;;12.05;2.50;;;3.90;99.90;;;;;;5073226;28;20213;-61
2023/02/24 03:18:52;;;;;;;4.75;2.92;;;3.80;99.90;;;;;;5073622;28;20225;-62
2023/02/24 03:21:29;;;;;;;13.98;2.80;;;3.80;99.90;;;;;;5073656;28;20185;-62
2023/02/24 03:23:56;;;;;;;11.63;2.85;;;3.80;99.90;;;;;;5073660;28;20559;-61
2023/02/24 03:26:27;;;;;;;7.15;1.90;;;3.80;99.90;;;;;;5073573;28;20293;-61
2023/02/24 03:29:04;;;;;;;9.27;2.20;;;3.70;99.90;;;;;;5073119;28;20682;-61
2023/02/24 03:31:38;;;;;;;10.38;2.45;;;3.70;99.90;;;;;;5073095;28;20204;-63
2023/02/24 03:34:09;;;;;;;7.63;1.80;;;3.70;99.90;;;;;;5073869;28;20185;-61
2023/02/24 03:36:37;;;;;;;6.65;3.03;;;3.70;99.90;;;;;;5072935;28;20229;-61
2023/02/24 03:39:10;;;;;;;8.15;2.28;;;3.70;99.90;;;;;;5073204;28;20232;-61
2023/02/24 03:41:42;;;;;;;4.65;1.70;;;3.70;99.90;;;;;;5073559;28;20207;-61
2023/02/24 03:44:10;;;;;;;13.80;2.97;;;3.60;99.90;;;;;;5072849;28;20190;-61
2023/02/24 03:46:40;;;;;;;7.15;1.70;;;3.70;99.90;;;;;;5073350;28;20266;-62
2023/02/24 03:49:15;;;;;;;5.07;1.40;;;3.70;99.90;;;;;;5073500;28;20292;-61
2023/02/24 03:51:49;;;;;;;3.33;1.60;;;3.60;99.90;;;;;;5074237;28;20189;-61
2023/02/24 03:54:29;;;;;;;6.28;1.45;;;3.70;99.90;;;;;;5073588;28;20289;-62
2023/02/24 03:57:05;;;;;;;8.82;1.90;;;3.70;99.90;;;;;;5073530;28;20232;-62
2023/02/24 03:59:45;;;;;;;5.20;1.65;;;3.70;99.90;;;;;;5073240;28;20193;-61
2023/02/24 04:02:19;;;;;;;7.28;2.85;;;3.70;99.90;;;;;;5073037;28;20185;-62
2023/02/24 04:04:49;;;;;;;6.88;2.03;;;3.70;99.90;;;;;;5074090;28;20201;-61
2023/02/24 04:07:29;;;;;;;8.82;1.90;;;3.70;99.90;;;;;;5073487;28;20229;-62
2023/02/24 04:11:22;;;;;;;6.85;2.13;;;3.70;99.90;;;;;;5090723;28;20616;-62
2023/02/24 04:13:54;;;;;;;5.30;2.00;;;3.70;99.90;;;;;;5090648;28;20191;-61
2023/02/24 04:16:27;;;;;;;6.25;1.80;;;3.70;99.90;;;;;;5090942;28;20188;-62
2023/02/24 04:18:58;;;;;;;9.13;2.10;;;3.70;99.90;;;;;;5090898;28;20604;-62
2023/02/24 04:21:30;;;;;;;4.95;1.75;;;3.70;99.90;;;;;;5106515;22;20199;-61
2023/02/24 04:23:58;;;;;;;3.58;1.95;;;3.70;99.90;;;;;;5049027;28;20237;-65
2023/02/24 04:26:27;;;;;;;5.60;2.17;;;3.70;99.90;;;;;;5049716;28;20855;-65
2023/02/24 04:28:56;;;;;;;3.85;1.77;;;3.70;99.90;;;;;;5049593;28;20672;-64
2023/02/24 04:31:26;;;;;;;4.93;2.70;;;3.70;99.90;;;;;;5049852;28;20209;-64
2023/02/24 04:33:53;;;;;;;12.38;2.67;;;3.70;99.90;;;;;;5049874;28;20213;-65
2023/02/24 04:36:21;;;;;;;3.83;1.92;;;3.60;99.90;;;;;;5050041;28;20209;-64
2023/02/24 04:38:48;;;;;;;4.53;1.40;;;3.70;99.90;;;;;;5049957;28;20230;-64
2023/02/24 04:41:19;;;;;;;8.77;3.22;;;3.60;99.90;;;;;;5050265;28;20202;-64
2023/02/24 04:43:49;;;;;;;12.52;2.10;;;3.60;99.90;;;;;;5051057;28;20201;-63
2023/02/24 04:46:16;;;;;;;9.18;2.28;;;3.60;99.90;;;;;;5050094;28;20555;-64
2023/02/24 04:48:44;;;;;;;3.13;1.20;;;3.60;99.90;;;;;;5049703;28;20205;-64
2023/02/24 04:51:11;;;;;;;4.75;1.67;;;3.60;99.90;;;;;;5049923;28;20292;-64
2023/02/24 04:53:37;;;;;;;5.97;2.30;;;3.60;99.90;;;;;;5049820;28;20222;-65
2023/02/24 04:56:07;;;;;;;7.35;3.00;;;3.60;99.90;;;;;;5049525;28;20687;-64
2023/02/24 04:58:36;;;;;;;4.10;1.85;;;3.60;99.90;;;;;;5049705;28;20264;-65
2023/02/24 05:01:09;;;;;;;5.65;1.42;;;3.50;99.90;;;;;;5049122;28;20202;-64
2023/02/24 05:03:36;;;;;;;13.45;2.30;;;3.50;99.90;;;;;;5044458;28;20310;-64
2023/02/24 05:06:05;;;;;;;3.15;1.55;;;3.60;99.90;;;;;;5059152;28;20201;-64
2023/02/24 05:08:32;;;;;;;5.93;2.42;;;3.60;99.90;;;;;;5048564;28;20268;-63
2023/02/24 05:11:02;;;;;;;4.00;1.73;;;3.60;99.90;;;;;;5048371;28;20218;-64
2023/02/24 05:13:31;;;;;;;4.10;1.65;;;3.50;99.90;;;;;;5048720;28;20249;-64
2023/02/24 05:15:59;;;;;;;4.30;1.55;;;3.60;99.90;;;;;;5052078;28;20194;-65
2023/02/24 05:18:34;;;;;;;3.72;1.77;;;3.60;99.90;;;;;;5048586;28;20319;-64
2023/02/24 05:23:52;;;;;;;10.60;2.50;;;3.60;99.90;;;;;;5042659;28;20213;-64
2023/02/24 05:26:20;;;;;;;5.95;1.95;;;3.60;99.90;;;;;;5039314;28;20667;-64
2023/02/24 05:28:51;;;;;;;4.63;2.03;;;3.60;99.90;;;;;;5037383;28;20202;-64
2023/02/24 05:31:19;;;;;;;7.50;2.58;;;3.60;99.90;;;;;;5029921;28;20214;-63
2023/02/24 05:33:53;;;;;;;6.63;1.98;;;3.60;99.90;;;;;;5035195;28;20216;-64
2023/02/24 05:36:21;;;;;;;4.75;1.50;;;3.70;99.90;;;;;;5038389;28;20205;-64
2023/02/24 05:38:54;;;;;;;4.18;1.60;;;3.60;99.90;;;;;;5037269;28;20678;-64
2023/02/24 05:41:21;;;;;;;8.48;2.10;;;3.70;99.90;;;;;;5035370;28;20190;-63
2023/02/24 05:43:53;;;;;;;12.75;2.10;;;3.70;99.90;;;;;;5033383;28;20211;-64
2023/02/24 05:46:25;;;;;;;6.07;2.28;;;3.70;99.90;;;;;;5034520;28;20277;-63
2023/02/24 05:48:55;;;;;;;4.72;1.70;;;3.70;99.90;;;;;;5035015;28;20231;-64
2023/02/24 05:51:23;;;;;;;3.97;1.45;;;3.70;99.90;;;;;;5037753;28;20222;-65
2023/02/24 05:53:54;;;;;;;5.38;2.03;;;3.70;99.90;;;;;;5037829;28;20207;-65
2023/02/24 05:56:21;;;;;;;9.57;1.90;;;3.70;99.90;;;;;;5038057;28;20191;-64
2023/02/24 05:58:49;;;;;;;3.33;1.70;;;3.70;99.90;;;;;;5037164;28;20687;-64
2023/02/24 06:01:18;;;;;;;9.32;1.63;;;3.70;99.90;;;;;;5036532;28;20204;-63
2023/02/24 06:03:46;;;;;;;9.52;2.05;;;3.70;99.90;;;;;;5035496;28;20273;-63
2023/02/24 06:06:15;;;;;;;4.85;1.63;;;3.70;99.90;;;;;;5035478;28;20291;-63
2023/02/24 06:08:48;;;;;;;5.88;1.60;;;3.70;99.90;;;;;;5036328;28;20202;-65
2023/02/24 06:11:16;;;;;;;4.10;1.70;;;3.70;99.90;;;;;;5034819;28;20249;-64
2023/02/24 06:13:46;;;;;;;3.35;1.40;;;3.70;99.90;;;;;;5034587;28;20253;-65
2023/02/24 06:16:14;;;;;;;2.85;1.50;;;3.70;99.90;;;;;;5035773;28;20230;-65
2023/02/24 06:18:40;;;;;;;5.20;1.90;;;3.70;99.90;;;;;;5049052;28;20205;-64
2023/02/24 06:21:07;;;;;;;5.45;1.70;;;3.80;99.90;;;;;;5037454;28;20203;-63
2023/02/24 06:23:35;;;;;;;5.85;1.80;;;3.70;99.90;;;;;;5044292;28;20233;-64
2023/02/24 06:26:03;;;;;;;3.50;2.05;;;3.70;99.90;;;;;;5034525;28;20691;-65
2023/02/24 06:28:30;;;;;;;5.47;2.08;;;3.70;99.90;;;;;;5044884;28;20199;-63
2023/02/24 06:30:57;;;;;;;3.80;1.48;;;3.80;99.90;;;;;;5030959;28;20226;-62
2023/02/24 06:33:25;;;;;;;2.35;1.45;;;3.80;99.90;;;;;;5051927;28;20228;-64
2023/02/24 06:35:52;;;;;;;5.18;1.65;;;3.70;99.90;;;;;;5045922;28;20211;-64
2023/02/24 06:38:19;;;;;;;12.38;2.30;;;3.70;99.90;;;;;;5042458;28;20210;-65
2023/02/24 06:40:51;;;;;;;3.15;1.63;;;3.70;99.90;;;;;;5044123;28;20199;-64
2023/02/24 06:43:18;;;;;;;7.93;1.90;;;3.70;99.90;;;;;;5038408;28;20230;-65
2023/02/24 06:45:45;;;;;;;9.48;1.67;;;3.70;99.90;;;;;;5030340;28;20203;-64
2023/02/24 06:48:11;;;;;;;3.10;1.80;;;3.80;99.90;;;;;;5035738;28;20209;-65
2023/02/24 06:50:39;;;;;;;4.78;1.65;;;3.80;99.90;;;;;;5039090;28;20223;-65
2023/02/24 06:53:15;;;;;;;5.18;1.50;;;3.80;99.90;;;;;;5038256;28;20313;-63
2023/02/24 06:55:42;;;;;;;3.40;1.60;;;3.80;99.90;;;;;;5032506;28;20240;-63
2023/02/24 06:58:16;;;;;;;15.73;2.17;;;3.80;99.90;;;;;;5038390;28;20202;-64
2023/02/24 07:00:55;;;;;;;5.35;1.70;;;3.80;99.90;;;;;;5032337;28;20199;-63
2023/02/24 07:03:23;;;;;;;8.52;2.08;;;3.90;99.90;;;;;;5034329;28;20276;-64
2023/02/24 07:06:09;;;;;;;6.32;1.90;;;3.90;99.90;;;;;;5035224;28;20254;-65
2023/02/24 07:08:37;;;;;;;3.90;1.50;;;3.90;99.90;;;;;;5037798;28;20244;-64
2023/02/24 07:11:06;;;;;;;2.92;1.00;;;3.90;99.90;;;;;;5037688;28;20576;-64
2023/02/24 07:13:35;;;;;;;3.75;1.08;;;3.90;99.90;;;;;;5046538;28;20227;-62
2023/02/24 07:16:05;;;;;;;5.38;1.88;;;3.90;99.90;;;;;;5035039;28;20217;-64
2023/02/24 07:18:34;;;;;;;3.75;1.63;;;3.90;99.90;;;;;;5042783;28;20229;-64
2023/02/24 07:21:03;;;;;;;8.82;1.35;;;3.90;99.90;;;;;;5035632;28;20226;-64
2023/02/24 07:23:31;;;;;;;4.22;1.58;;;3.90;99.90;;;;;;5034162;28;20238;-65
2023/02/24 07:25:58;;;;;;;5.43;1.70;;;3.90;99.90;;;;;;5034476;28;20703;-65
2023/02/24 07:28:26;;;;;;;2.03;1.10;;;4.00;99.90;;;;;;5034494;28;20207;-65
2023/02/24 07:30:56;;;;;;;7.35;2.22;;;4.00;99.90;;;;;;5038351;28;20711;-64
2023/02/24 07:33:22;;;;;;;3.75;1.40;;;4.00;99.90;;;;;;5041897;28;20272;-65
2023/02/24 07:35:50;;;;;;;6.00;1.40;;;4.10;99.90;;;;;;5041519;28;20241;-65
2023/02/24 07:38:21;;;;;;;5.97;1.75;;;4.00;99.90;;;;;;5041069;28;20229;-63
2023/02/24 07:40:48;;;;;;;3.78;1.50;;;4.10;99.90;;;;;;5038638;28;20548;-64
2023/02/24 07:43:15;;;;;;;4.90;1.50;;;4.10;99.90;;;;;;5036241;28;20246;-64
2023/02/24 07:45:42;;;;;;;4.00;1.35;;;4.10;99.90;;;;;;5034552;28;20274;-64
2023/02/24 07:48:11;;;;;;;2.03;1.70;;;4.10;99.90;;;;;;5035442;28;20219;-65
2023/02/24 07:50:40;;;;;;;5.22;1.33;;;4.20;99.90;;;;;;5050954;28;20300;-65
2023/02/24 07:53:08;;;;;;;3.55;1.40;;;4.20;99.90;;;;;;5060178;28;20229;-65
2023/02/24 07:55:36;;;;;;;5.18;1.33;;;4.20;99.90;;;;;;5059607;28;20206;-65
2023/02/24 07:58:04;;;;;;;2.50;1.50;;;4.20;99.90;;;;;;5058859;28;20233;-64
2023/02/24 08:00:48;;;;;;;3.22;1.35;;;4.20;99.90;;;;;;5054594;28;20285;-65
2023/02/24 08:03:17;;;;;;;5.57;1.42;;;4.20;99.90;;;;;;5054123;28;20298;-65
2023/02/24 08:05:44;;;;;;;6.68;1.58;;;4.20;99.90;;;;;;5054646;28;20201;-65
2023/02/24 08:08:11;;;;;;;3.17;1.52;;;4.20;99.90;;;;;;5053683;28;20617;-65
2023/02/24 08:10:40;;;;;;;1.92;1.00;;;4.20;99.90;;;;;;5054505;28;20225;-65
2023/02/24 08:13:10;;;;;;;6.35;2.00;;;4.20;99.90;;;;;;5053230;28;20737;-65
2023/02/24 08:15:37;;;;;;;2.90;1.45;;;4.30;99.90;;;;;;5055187;28;20193;-65
2023/02/24 08:18:05;;;;;;;4.80;2.03;;;4.30;99.90;;;;;;5054932;28;20202;-64
2023/02/24 08:20:50;;;;;;;3.95;1.55;;;4.30;99.90;;;;;;5054362;28;20760;-65
2023/02/24 08:23:17;;;;;;;3.80;1.20;;;4.30;99.90;;;;;;5054264;28;20669;-65
2023/02/24 08:25:45;;;;;;;5.10;2.17;;;4.30;99.80;;;;;;5055861;28;20216;-65
2023/02/24 08:28:12;;;;;;;11.05;2.08;;;4.30;99.80;;;;;;5055636;28;20198;-65
2023/02/24 08:30:43;;;;;;;4.45;1.70;;;4.30;99.90;;;;;;5053789;28;20222;-65
2023/02/24 08:33:14;;;;;;;4.38;1.73;;;4.30;99.90;;;;;;5053552;28;20710;-67
2023/02/24 08:35:43;;;;;;;10.02;2.13;;;4.40;99.90;;;;;;5054520;28;20272;-66
2023/02/24 08:38:13;;;;;;;7.85;1.95;;;4.40;99.80;;;;;;5053041;28;20248;-65
2023/02/24 08:40:53;;;;;;;5.03;1.67;;;4.30;99.90;;;;;;5052932;28;20200;-65
2023/02/24 08:43:33;;;;;;;1.38;1.20;;;4.30;99.90;;;;;;5054583;28;20283;-65
2023/02/24 08:46:03;;;;;;;5.03;1.85;;;4.20;99.60;;;;;;5052704;28;20186;-65
2023/02/24 08:48:36;;;;;;;3.10;1.42;;;4.10;99.90;;;;;;5054327;28;20264;-65
2023/02/24 08:51:10;;;;;;;3.92;1.40;;;4.10;99.90;;;;;;5053706;28;20325;-65
2023/02/24 08:53:39;;;;;;;6.32;2.03;;;4.00;99.90;;;;;;5053076;28;20222;-65
2023/02/24 08:56:10;;;;;;;3.60;1.30;;;3.90;99.90;;;;;;5053796;28;20260;-65
2023/02/24 08:58:39;;;;;;;3.40;1.70;;;3.80;99.90;;;;;;5057250;28;20640;-65
2023/02/24 09:01:17;;;;;;;7.30;2.10;;;3.70;99.90;;;;;;5057309;28;20569;-63
2023/02/24 09:03:46;;;;;;;5.18;1.30;;;3.50;99.90;;;;;;5057548;28;20193;-65
2023/02/24 09:06:16;;;;;;;3.92;1.55;;;3.40;99.90;;;;;;5058050;28;20671;-65
2023/02/24 09:08:45;;;;;;;2.10;1.90;;;3.30;99.90;;;;;;5056676;28;20705;-64
2023/02/24 09:11:15;;;;;;;9.40;2.67;;;3.30;99.90;;;;;;5056718;28;20233;-64
2023/02/24 09:13:50;;;;;;;3.50;1.50;;;3.30;99.90;;;;;;5056375;28;20540;-65
2023/02/24 09:16:18;;;;;;;1.85;1.73;;;3.30;99.90;;;;;;5058182;28;20190;-66
2023/02/24 09:19:13;;;;;;;2.75;1.65;;;3.20;99.90;;;;;;5058102;28;20202;-65
2023/02/24 09:24:25;;;;;;;7.57;2.30;;;3.20;99.90;;;;;;5058136;28;20260;-65
2023/02/24 09:26:57;;;;;;;5.70;2.20;;;3.20;99.90;;;;;;5058298;28;20190;-64
2023/02/24 09:29:48;;;;;;;10.57;2.90;;;3.10;99.90;;;;;;5060693;28;20640;-63
2023/02/24 09:32:15;;;;;;;7.03;2.70;;;3.20;99.90;;;;;;5061670;28;20284;-63
2023/02/24 09:34:43;;;;;;;6.38;2.17;;;3.20;99.90;;;;;;5058697;28;20202;-64
2023/02/24 09:37:23;;;;;;;7.47;2.80;;;3.20;99.90;;;;;;5056221;28;20270;-64
2023/02/24 09:42:45;;;;;;;4.65;2.65;;;3.10;99.90;;;;;;5056496;28;20277;-62
2023/02/24 09:45:31;;;;;;;4.65;2.53;;;3.10;99.90;;;;;;5056622;28;20186;-64
2023/02/24 09:48:00;;;;;;;8.23;2.17;;;3.10;99.90;;;;;;5056548;28;20659;-64
2023/02/24 09:50:44;;;;;;;4.53;2.20;;;3.20;99.90;;;;;;5057155;28;20206;-63
2023/02/24 09:53:17;;;;;;;8.45;2.97;;;3.10;99.90;;;;;;5058706;28;20244;-63
2023/02/24 09:56:02;;;;;;;5.15;2.70;;;3.20;99.90;;;;;;5059112;28;20233;-63
2023/02/24 09:58:37;;;;;;;4.43;2.60;;;3.20;99.90;;;;;;5058452;28;20194;-63
2023/02/24 10:01:21;;;;;;;2.97;2.67;;;3.30;99.90;;;;;;5057529;28;20182;-63
2023/02/24 10:04:03;;;;;;;5.75;2.30;;;3.30;99.90;;;;;;5058101;28;20197;-63
2023/02/24 10:06:34;;;;;;;8.52;2.90;;;3.30;99.90;;;;;;5057418;28;20190;-64
2023/02/24 10:09:11;;;;;;;5.32;3.28;;;3.30;99.90;;;;;;5056543;28;20190;-64
2023/02/24 10:11:47;;;;;;;7.10;2.90;;;3.30;99.90;;;;;;5056257;28;20256;-64
2023/02/24 10:14:18;;;;;;;13.18;3.20;;;3.30;99.90;;;;;;5055583;28;20632;-63
2023/02/24 10:17:21;;;;;;;6.35;3.65;;;3.30;99.90;;;;;;5055812;28;20273;-63
2023/02/24 10:19:34;;;;;;;4.00;2.95;;;3.30;99.90;;;;;;5055353;28;20202;-63
2023/02/24 10:22:07;;;;;;;9.20;2.95;;;3.10;99.90;;;;;;5080516;22;20667;-59
2023/02/24 10:24:46;;;;;;;5.82;2.55;;;3.10;99.90;;;;;;5016815;28;20219;-60
2023/02/24 10:27:16;;;;;;;5.43;2.95;;;3.10;99.90;;;;;;5016527;28;20326;-61
2023/02/24 10:30:03;;;;;;;7.13;3.25;;;3.00;99.90;;;;;;5013540;28;20191;-60
2023/02/24 10:32:40;;;;;;;7.28;3.22;;;3.00;99.90;;;;;;5015164;28;20223;-60
2023/02/24 10:35:15;;;;;;;6.82;2.72;;;3.00;99.90;;;;;;5014857;28;20286;-63
2023/02/24 10:37:42;;;;;;;2.67;2.30;;;2.90;99.90;;;;;;5014219;28;20233;-60
2023/02/24 10:40:16;;;;;;;8.68;2.97;;;2.90;99.90;;;;;;5015015;28;20222;-62
